sensor_id;sensor_type;location;lat;lon;timestamp;temperature;humidity
41058;DHT22;66768;48.884;2.258;2023-05-25T00:00:18;16.30;98.00
41058;DHT22;66768;48.884;2.258;2023-05-25T00:02:45;16.30;97.70
41058;DHT22;66768;48.884;2.258;2023-05-25T00:05:12;16.30;97.60
41058;DHT22;66768;48.884;2.258;2023-05-25T00:07:40;16.30;97.70
41058;DHT22;66768;48.884;2.258;2023-05-25T00:10:09;16.30;97.60
41058;DHT22;66768;48.884;2.258;2023-05-25T00:12:36;16.20;98.00
41058;DHT22;66768;48.884;2.258;2023-05-25T00:15:04;16.30;98.20
41058;DHT22;66768;48.884;2.258;2023-05-25T00:17:32;16.20;98.30
41058;DHT22;66768;48.884;2.258;2023-05-25T00:20:01;16.20;98.30
41058;DHT22;66768;48.884;2.258;2023-05-25T00:22:34;16.10;97.50
41058;DHT22;66768;48.884;2.258;2023-05-25T00:25:01;16.10;97.20
41058;DHT22;66768;48.884;2.258;2023-05-25T00:27:29;16.10;97.00
41058;DHT22;66768;48.884;2.258;2023-05-25T00:29:56;16.10;97.10
41058;DHT22;66768;48.884;2.258;2023-05-25T00:32:23;16.10;97.20
41058;DHT22;66768;48.884;2.258;2023-05-25T00:34:50;16.00;97.00
41058;DHT22;66768;48.884;2.258;2023-05-25T00:37:17;16.10;96.90
41058;DHT22;66768;48.884;2.258;2023-05-25T00:39:44;16.10;96.90
41058;DHT22;66768;48.884;2.258;2023-05-25T00:42:11;16.00;97.30
41058;DHT22;66768;48.884;2.258;2023-05-25T00:44:39;16.00;97.80
41058;DHT22;66768;48.884;2.258;2023-05-25T00:47:06;16.00;98.10
41058;DHT22;66768;48.884;2.258;2023-05-25T00:49:34;15.90;98.20
41058;DHT22;66768;48.884;2.258;2023-05-25T00:52:01;15.90;98.50
41058;DHT22;66768;48.884;2.258;2023-05-25T00:54:28;15.80;98.60
41058;DHT22;66768;48.884;2.258;2023-05-25T00:57:00;15.80;98.60
41058;DHT22;66768;48.884;2.258;2023-05-25T00:59:32;15.80;98.60
41058;DHT22;66768;48.884;2.258;2023-05-25T01:02:03;15.70;98.60
41058;DHT22;66768;48.884;2.258;2023-05-25T01:04:35;15.70;98.80
41058;DHT22;66768;48.884;2.258;2023-05-25T01:07:03;15.60;98.80
41058;DHT22;66768;48.884;2.258;2023-05-25T01:09:33;15.60;98.80
41058;DHT22;66768;48.884;2.258;2023-05-25T01:12:01;15.50;98.90
41058;DHT22;66768;48.884;2.258;2023-05-25T01:14:29;15.50;98.70
41058;DHT22;66768;48.884;2.258;2023-05-25T01:16:57;15.40;98.90
41058;DHT22;66768;48.884;2.258;2023-05-25T01:19:25;15.40;98.90
41058;DHT22;66768;48.884;2.258;2023-05-25T01:22:00;15.40;98.90
41058;DHT22;66768;48.884;2.258;2023-05-25T01:24:32;15.30;98.90
41058;DHT22;66768;48.884;2.258;2023-05-25T01:27:04;15.20;98.90
41058;DHT22;66768;48.884;2.258;2023-05-25T01:29:33;15.20;99.00
41058;DHT22;66768;48.884;2.258;2023-05-25T01:32:02;15.20;99.00
41058;DHT22;66768;48.884;2.258;2023-05-25T01:34:30;15.30;99.00
41058;DHT22;66768;48.884;2.258;2023-05-25T01:36:58;15.20;99.00
41058;DHT22;66768;48.884;2.258;2023-05-25T01:39:25;15.20;98.90
41058;DHT22;66768;48.884;2.258;2023-05-25T01:41:52;15.20;98.90
41058;DHT22;66768;48.884;2.258;2023-05-25T01:44:19;15.20;99.00
41058;DHT22;66768;48.884;2.258;2023-05-25T01:46:50;15.10;98.90
41058;DHT22;66768;48.884;2.258;2023-05-25T01:49:23;15.10;98.90
41058;DHT22;66768;48.884;2.258;2023-05-25T01:51:59;15.10;98.80
41058;DHT22;66768;48.884;2.258;2023-05-25T01:54:34;15.10;98.80
41058;DHT22;66768;48.884;2.258;2023-05-25T01:57:06;15.00;98.60
41058;DHT22;66768;48.884;2.258;2023-05-25T01:59:33;15.00;98.60
41058;DHT22;66768;48.884;2.258;2023-05-25T02:02:02;14.90;98.70
41058;DHT22;66768;48.884;2.258;2023-05-25T02:04:30;15.00;98.70
41058;DHT22;66768;48.884;2.258;2023-05-25T02:06:58;15.00;98.60
41058;DHT22;66768;48.884;2.258;2023-05-25T02:09:25;14.90;98.60
41058;DHT22;66768;48.884;2.258;2023-05-25T02:11:52;14.80;98.50
41058;DHT22;66768;48.884;2.258;2023-05-25T02:14:21;14.90;98.60
41058;DHT22;66768;48.884;2.258;2023-05-25T02:16:48;14.80;98.70
41058;DHT22;66768;48.884;2.258;2023-05-25T02:19:15;14.80;98.80
41058;DHT22;66768;48.884;2.258;2023-05-25T02:21:42;14.70;98.90
41058;DHT22;66768;48.884;2.258;2023-05-25T02:24:10;14.60;98.90
41058;DHT22;66768;48.884;2.258;2023-05-25T02:26:37;14.60;99.10
41058;DHT22;66768;48.884;2.258;2023-05-25T02:29:05;14.50;99.10
41058;DHT22;66768;48.884;2.258;2023-05-25T02:31:32;14.50;99.20
41058;DHT22;66768;48.884;2.258;2023-05-25T02:33:58;14.40;99.40
41058;DHT22;66768;48.884;2.258;2023-05-25T02:36:25;14.40;99.40
41058;DHT22;66768;48.884;2.258;2023-05-25T02:38:52;14.30;99.50
41058;DHT22;66768;48.884;2.258;2023-05-25T02:41:21;14.30;99.60
41058;DHT22;66768;48.884;2.258;2023-05-25T02:43:48;14.40;99.60
41058;DHT22;66768;48.884;2.258;2023-05-25T02:46:15;14.30;99.60
41058;DHT22;66768;48.884;2.258;2023-05-25T02:48:42;14.20;99.70
41058;DHT22;66768;48.884;2.258;2023-05-25T02:51:09;14.20;99.70
41058;DHT22;66768;48.884;2.258;2023-05-25T02:53:36;14.30;99.80
41058;DHT22;66768;48.884;2.258;2023-05-25T02:56:03;14.30;99.70
41058;DHT22;66768;48.884;2.258;2023-05-25T02:58:32;14.20;99.70
41058;DHT22;66768;48.884;2.258;2023-05-25T03:00:59;14.30;99.70
41058;DHT22;66768;48.884;2.258;2023-05-25T03:03:25;14.20;99.60
41058;DHT22;66768;48.884;2.258;2023-05-25T03:05:52;14.20;99.70
41058;DHT22;66768;48.884;2.258;2023-05-25T03:08:20;14.10;99.70
41058;DHT22;66768;48.884;2.258;2023-05-25T03:10:47;14.10;99.80
41058;DHT22;66768;48.884;2.258;2023-05-25T03:13:14;14.00;99.80
41058;DHT22;66768;48.884;2.258;2023-05-25T03:15:42;13.90;99.90
41058;DHT22;66768;48.884;2.258;2023-05-25T03:18:09;13.90;99.90
41058;DHT22;66768;48.884;2.258;2023-05-25T03:20:36;14.00;99.90
41058;DHT22;66768;48.884;2.258;2023-05-25T03:23:03;14.00;99.90
41058;DHT22;66768;48.884;2.258;2023-05-25T03:25:30;14.00;99.90
41058;DHT22;66768;48.884;2.258;2023-05-25T03:27:56;14.00;99.90
41058;DHT22;66768;48.884;2.258;2023-05-25T03:30:24;13.90;99.90
41058;DHT22;66768;48.884;2.258;2023-05-25T03:32:52;13.90;99.90
41058;DHT22;66768;48.884;2.258;2023-05-25T03:35:19;14.00;99.90
41058;DHT22;66768;48.884;2.258;2023-05-25T03:37:45;13.90;99.90
41058;DHT22;66768;48.884;2.258;2023-05-25T03:40:12;13.90;99.90
41058;DHT22;66768;48.884;2.258;2023-05-25T03:42:39;13.80;99.90
41058;DHT22;66768;48.884;2.258;2023-05-25T03:45:07;13.80;99.90
41058;DHT22;66768;48.884;2.258;2023-05-25T03:47:34;13.80;99.90
41058;DHT22;66768;48.884;2.258;2023-05-25T03:50:03;13.90;99.90
41058;DHT22;66768;48.884;2.258;2023-05-25T03:52:30;13.90;99.90
41058;DHT22;66768;48.884;2.258;2023-05-25T03:54:57;13.80;99.90
41058;DHT22;66768;48.884;2.258;2023-05-25T03:57:26;13.90;99.90
41058;DHT22;66768;48.884;2.258;2023-05-25T03:59:53;13.80;99.90
41058;DHT22;66768;48.884;2.258;2023-05-25T04:02:19;13.80;99.90
41058;DHT22;66768;48.884;2.258;2023-05-25T04:04:47;13.80;99.90
41058;DHT22;66768;48.884;2.258;2023-05-25T04:07:17;13.80;99.90
41058;DHT22;66768;48.884;2.258;2023-05-25T04:09:44;13.70;99.90
41058;DHT22;66768;48.884;2.258;2023-05-25T04:12:11;13.70;99.90
41058;DHT22;66768;48.884;2.258;2023-05-25T04:14:38;13.60;99.90
41058;DHT22;66768;48.884;2.258;2023-05-25T04:17:07;13.60;99.90
41058;DHT22;66768;48.884;2.258;2023-05-25T04:19:34;13.60;99.90
41058;DHT22;66768;48.884;2.258;2023-05-25T04:22:00;13.60;99.90
41058;DHT22;66768;48.884;2.258;2023-05-25T04:24:29;13.60;99.90
41058;DHT22;66768;48.884;2.258;2023-05-25T04:26:57;13.60;99.90
41058;DHT22;66768;48.884;2.258;2023-05-25T04:29:24;13.60;99.90
41058;DHT22;66768;48.884;2.258;2023-05-25T04:31:51;13.60;99.90
41058;DHT22;66768;48.884;2.258;2023-05-25T04:34:19;13.60;99.90
41058;DHT22;66768;48.884;2.258;2023-05-25T04:36:46;13.60;99.90
41058;DHT22;66768;48.884;2.258;2023-05-25T04:39:13;13.70;99.90
41058;DHT22;66768;48.884;2.258;2023-05-25T04:41:41;13.60;99.90
41058;DHT22;66768;48.884;2.258;2023-05-25T04:44:08;13.60;99.90
41058;DHT22;66768;48.884;2.258;2023-05-25T04:46:35;13.60;99.90
41058;DHT22;66768;48.884;2.258;2023-05-25T04:49:03;13.50;99.90
41058;DHT22;66768;48.884;2.258;2023-05-25T04:51:32;13.50;99.90
41058;DHT22;66768;48.884;2.258;2023-05-25T04:54:00;13.50;99.90
41058;DHT22;66768;48.884;2.258;2023-05-25T04:56:27;13.50;99.90
41058;DHT22;66768;48.884;2.258;2023-05-25T04:58:55;13.40;99.90
41058;DHT22;66768;48.884;2.258;2023-05-25T05:01:22;13.50;99.90
41058;DHT22;66768;48.884;2.258;2023-05-25T05:03:52;13.40;99.90
41058;DHT22;66768;48.884;2.258;2023-05-25T05:06:19;13.40;99.90
41058;DHT22;66768;48.884;2.258;2023-05-25T05:08:46;13.40;99.90
41058;DHT22;66768;48.884;2.258;2023-05-25T05:11:13;13.40;99.90
41058;DHT22;66768;48.884;2.258;2023-05-25T05:13:40;13.50;99.90
41058;DHT22;66768;48.884;2.258;2023-05-25T05:16:08;13.40;99.90
41058;DHT22;66768;48.884;2.258;2023-05-25T05:18:35;13.50;99.90
41058;DHT22;66768;48.884;2.258;2023-05-25T05:21:02;13.60;99.90
41058;DHT22;66768;48.884;2.258;2023-05-25T05:23:29;13.70;99.90
41058;DHT22;66768;48.884;2.258;2023-05-25T05:25:55;13.80;99.90
41058;DHT22;66768;48.884;2.258;2023-05-25T05:28:22;13.70;99.90
41058;DHT22;66768;48.884;2.258;2023-05-25T05:30:51;13.70;99.90
41058;DHT22;66768;48.884;2.258;2023-05-25T05:33:20;13.70;99.90
41058;DHT22;66768;48.884;2.258;2023-05-25T05:35:48;13.70;99.90
41058;DHT22;66768;48.884;2.258;2023-05-25T05:38:15;13.70;99.90
41058;DHT22;66768;48.884;2.258;2023-05-25T05:40:42;13.70;99.90
41058;DHT22;66768;48.884;2.258;2023-05-25T05:43:09;13.70;99.90
41058;DHT22;66768;48.884;2.258;2023-05-25T05:45:36;13.80;99.90
41058;DHT22;66768;48.884;2.258;2023-05-25T05:48:04;13.80;99.90
41058;DHT22;66768;48.884;2.258;2023-05-25T05:50:35;13.80;99.90
41058;DHT22;66768;48.884;2.258;2023-05-25T05:53:02;13.90;99.80
41058;DHT22;66768;48.884;2.258;2023-05-25T05:55:29;13.80;99.90
41058;DHT22;66768;48.884;2.258;2023-05-25T05:57:56;13.80;99.80
41058;DHT22;66768;48.884;2.258;2023-05-25T06:00:23;13.90;99.90
41058;DHT22;66768;48.884;2.258;2023-05-25T06:02:50;13.90;99.80
41058;DHT22;66768;48.884;2.258;2023-05-25T06:05:17;13.90;99.90
41058;DHT22;66768;48.884;2.258;2023-05-25T06:07:46;13.90;99.90
41058;DHT22;66768;48.884;2.258;2023-05-25T06:10:13;14.00;99.80
41058;DHT22;66768;48.884;2.258;2023-05-25T06:12:39;14.10;99.70
41058;DHT22;66768;48.884;2.258;2023-05-25T06:15:07;14.20;99.70
41058;DHT22;66768;48.884;2.258;2023-05-25T06:17:34;14.10;99.60
41058;DHT22;66768;48.884;2.258;2023-05-25T06:20:01;14.20;99.50
41058;DHT22;66768;48.884;2.258;2023-05-25T06:22:28;14.30;99.40
41058;DHT22;66768;48.884;2.258;2023-05-25T06:24:56;14.30;99.20
41058;DHT22;66768;48.884;2.258;2023-05-25T06:27:23;14.50;99.70
41058;DHT22;66768;48.884;2.258;2023-05-25T06:29:50;14.50;99.40
41058;DHT22;66768;48.884;2.258;2023-05-25T06:32:17;14.50;98.50
41058;DHT22;66768;48.884;2.258;2023-05-25T06:34:44;14.50;98.70
41058;DHT22;66768;48.884;2.258;2023-05-25T06:37:11;14.50;98.70
41058;DHT22;66768;48.884;2.258;2023-05-25T06:39:39;14.60;98.60
41058;DHT22;66768;48.884;2.258;2023-05-25T06:42:08;14.60;98.60
41058;DHT22;66768;48.884;2.258;2023-05-25T06:44:36;14.70;98.50
41058;DHT22;66768;48.884;2.258;2023-05-25T06:47:03;14.80;98.60
41058;DHT22;66768;48.884;2.258;2023-05-25T06:49:30;14.90;98.60
41058;DHT22;66768;48.884;2.258;2023-05-25T06:51:57;15.00;98.20
41058;DHT22;66768;48.884;2.258;2023-05-25T06:54:23;15.10;98.00
41058;DHT22;66768;48.884;2.258;2023-05-25T06:56:51;15.30;97.90
41058;DHT22;66768;48.884;2.258;2023-05-25T06:59:19;15.20;98.00
41058;DHT22;66768;48.884;2.258;2023-05-25T07:01:46;15.50;97.90
41058;DHT22;66768;48.884;2.258;2023-05-25T07:04:13;15.60;97.00
41058;DHT22;66768;48.884;2.258;2023-05-25T07:06:40;15.70;96.90
41058;DHT22;66768;48.884;2.258;2023-05-25T07:09:07;15.80;96.70
41058;DHT22;66768;48.884;2.258;2023-05-25T07:11:34;15.60;96.10
41058;DHT22;66768;48.884;2.258;2023-05-25T07:14:00;15.70;96.40
41058;DHT22;66768;48.884;2.258;2023-05-25T07:16:29;15.70;96.30
41058;DHT22;66768;48.884;2.258;2023-05-25T07:18:56;15.70;95.80
41058;DHT22;66768;48.884;2.258;2023-05-25T07:21:23;15.80;95.90
41058;DHT22;66768;48.884;2.258;2023-05-25T07:23:50;15.90;95.60
41058;DHT22;66768;48.884;2.258;2023-05-25T07:26:17;16.00;95.60
41058;DHT22;66768;48.884;2.258;2023-05-25T07:28:45;16.10;95.50
41058;DHT22;66768;48.884;2.258;2023-05-25T07:31:12;16.30;95.30
41058;DHT22;66768;48.884;2.258;2023-05-25T07:33:40;16.30;94.70
41058;DHT22;66768;48.884;2.258;2023-05-25T07:36:08;16.50;94.70
41058;DHT22;66768;48.884;2.258;2023-05-25T07:38:35;16.60;94.40
41058;DHT22;66768;48.884;2.258;2023-05-25T07:41:02;16.50;94.00
41058;DHT22;66768;48.884;2.258;2023-05-25T07:43:29;16.70;94.20
41058;DHT22;66768;48.884;2.258;2023-05-25T07:45:56;16.90;94.30
41058;DHT22;66768;48.884;2.258;2023-05-25T07:48:23;16.90;93.70
41058;DHT22;66768;48.884;2.258;2023-05-25T07:50:51;17.00;93.80
41058;DHT22;66768;48.884;2.258;2023-05-25T07:53:18;17.20;93.50
41058;DHT22;66768;48.884;2.258;2023-05-25T07:55:45;17.10;92.80
41058;DHT22;66768;48.884;2.258;2023-05-25T07:58:13;17.40;92.90
41058;DHT22;66768;48.884;2.258;2023-05-25T08:00:40;17.50;92.80
41058;DHT22;66768;48.884;2.258;2023-05-25T08:03:07;17.60;92.50
41058;DHT22;66768;48.884;2.258;2023-05-25T08:05:33;17.70;92.30
41058;DHT22;66768;48.884;2.258;2023-05-25T08:08:02;17.90;92.10
41058;DHT22;66768;48.884;2.258;2023-05-25T08:10:29;17.90;92.00
41058;DHT22;66768;48.884;2.258;2023-05-25T08:12:57;18.10;91.50
41058;DHT22;66768;48.884;2.258;2023-05-25T08:15:24;18.10;90.90
41058;DHT22;66768;48.884;2.258;2023-05-25T08:17:51;18.20;91.00
41058;DHT22;66768;48.884;2.258;2023-05-25T08:20:18;18.30;91.00
41058;DHT22;66768;48.884;2.258;2023-05-25T08:22:44;18.40;90.10
41058;DHT22;66768;48.884;2.258;2023-05-25T08:25:13;18.50;89.40
41058;DHT22;66768;48.884;2.258;2023-05-25T08:27:39;18.60;87.90
41058;DHT22;66768;48.884;2.258;2023-05-25T08:30:07;18.70;87.10
41058;DHT22;66768;48.884;2.258;2023-05-25T08:32:34;18.90;86.90
41058;DHT22;66768;48.884;2.258;2023-05-25T08:35:01;19.00;85.80
41058;DHT22;66768;48.884;2.258;2023-05-25T08:37:30;18.90;85.20
41058;DHT22;66768;48.884;2.258;2023-05-25T08:39:57;18.90;85.20
41058;DHT22;66768;48.884;2.258;2023-05-25T08:42:28;19.10;85.90
41058;DHT22;66768;48.884;2.258;2023-05-25T08:44:55;19.10;86.00
41058;DHT22;66768;48.884;2.258;2023-05-25T08:47:23;19.00;85.70
41058;DHT22;66768;48.884;2.258;2023-05-25T08:49:52;19.00;85.00
41058;DHT22;66768;48.884;2.258;2023-05-25T08:52:21;18.90;85.00
41058;DHT22;66768;48.884;2.258;2023-05-25T08:54:50;18.90;84.70
41058;DHT22;66768;48.884;2.258;2023-05-25T08:57:22;19.00;85.20
41058;DHT22;66768;48.884;2.258;2023-05-25T08:59:56;19.00;84.80
41058;DHT22;66768;48.884;2.258;2023-05-25T09:02:33;19.00;84.60
41058;DHT22;66768;48.884;2.258;2023-05-25T09:05:01;18.90;84.10
41058;DHT22;66768;48.884;2.258;2023-05-25T09:07:30;19.00;83.70
41058;DHT22;66768;48.884;2.258;2023-05-25T09:09:57;19.10;83.60
41058;DHT22;66768;48.884;2.258;2023-05-25T09:12:28;19.60;83.40
41058;DHT22;66768;48.884;2.258;2023-05-25T09:14:57;22.00;80.80
41058;DHT22;66768;48.884;2.258;2023-05-25T09:17:24;20.50;80.90
41058;DHT22;66768;48.884;2.258;2023-05-25T09:19:51;19.90;82.10
41058;DHT22;66768;48.884;2.258;2023-05-25T09:22:18;19.60;82.20
41058;DHT22;66768;48.884;2.258;2023-05-25T09:24:46;19.30;82.00
41058;DHT22;66768;48.884;2.258;2023-05-25T09:27:16;19.20;82.30
41058;DHT22;66768;48.884;2.258;2023-05-25T09:29:45;19.10;82.80
41058;DHT22;66768;48.884;2.258;2023-05-25T09:32:13;19.00;82.50
41058;DHT22;66768;48.884;2.258;2023-05-25T09:34:42;18.80;83.00
41058;DHT22;66768;48.884;2.258;2023-05-25T09:37:13;18.70;83.50
41058;DHT22;66768;48.884;2.258;2023-05-25T09:39:41;18.60;83.40
41058;DHT22;66768;48.884;2.258;2023-05-25T09:42:08;18.50;82.60
41058;DHT22;66768;48.884;2.258;2023-05-25T09:44:35;18.60;82.80
41058;DHT22;66768;48.884;2.258;2023-05-25T09:47:02;18.50;82.40
41058;DHT22;66768;48.884;2.258;2023-05-25T09:49:31;18.40;81.30
41058;DHT22;66768;48.884;2.258;2023-05-25T09:51:59;18.40;82.30
41058;DHT22;66768;48.884;2.258;2023-05-25T09:54:26;18.40;82.60
41058;DHT22;66768;48.884;2.258;2023-05-25T09:56:53;18.40;82.50
41058;DHT22;66768;48.884;2.258;2023-05-25T09:59:21;18.50;82.90
41058;DHT22;66768;48.884;2.258;2023-05-25T10:01:50;18.60;83.60
41058;DHT22;66768;48.884;2.258;2023-05-25T10:04:17;18.60;81.20
41058;DHT22;66768;48.884;2.258;2023-05-25T10:06:46;18.60;82.30
41058;DHT22;66768;48.884;2.258;2023-05-25T10:09:15;18.60;82.10
41058;DHT22;66768;48.884;2.258;2023-05-25T10:11:44;18.70;83.20
41058;DHT22;66768;48.884;2.258;2023-05-25T10:14:14;18.60;83.70
41058;DHT22;66768;48.884;2.258;2023-05-25T10:16:44;18.60;84.00
41058;DHT22;66768;48.884;2.258;2023-05-25T10:19:18;18.60;83.60
41058;DHT22;66768;48.884;2.258;2023-05-25T10:21:54;18.50;82.30
41058;DHT22;66768;48.884;2.258;2023-05-25T10:24:29;18.50;83.00
41058;DHT22;66768;48.884;2.258;2023-05-25T10:26:58;18.40;84.10
41058;DHT22;66768;48.884;2.258;2023-05-25T10:29:27;18.50;84.40
41058;DHT22;66768;48.884;2.258;2023-05-25T10:31:56;18.50;83.90
41058;DHT22;66768;48.884;2.258;2023-05-25T10:34:25;18.50;83.80
41058;DHT22;66768;48.884;2.258;2023-05-25T10:36:54;18.50;82.90
41058;DHT22;66768;48.884;2.258;2023-05-25T10:39:21;18.50;83.40
41058;DHT22;66768;48.884;2.258;2023-05-25T10:41:50;18.50;83.30
41058;DHT22;66768;48.884;2.258;2023-05-25T10:44:18;18.60;82.90
41058;DHT22;66768;48.884;2.258;2023-05-25T10:46:45;18.70;82.80
41058;DHT22;66768;48.884;2.258;2023-05-25T10:49:12;18.60;82.60
41058;DHT22;66768;48.884;2.258;2023-05-25T10:51:40;18.70;82.60
41058;DHT22;66768;48.884;2.258;2023-05-25T10:54:12;18.60;82.50
41058;DHT22;66768;48.884;2.258;2023-05-25T10:57:06;18.70;82.90
41058;DHT22;66768;48.884;2.258;2023-05-25T10:59:33;18.70;83.00
41058;DHT22;66768;48.884;2.258;2023-05-25T11:02:05;18.70;83.50
41058;DHT22;66768;48.884;2.258;2023-05-25T11:04:32;18.70;83.00
41058;DHT22;66768;48.884;2.258;2023-05-25T11:07:06;18.70;82.70
41058;DHT22;66768;48.884;2.258;2023-05-25T11:09:42;18.70;82.10
41058;DHT22;66768;48.884;2.258;2023-05-25T11:12:19;18.70;81.80
41058;DHT22;66768;48.884;2.258;2023-05-25T11:15:08;18.70;81.60
41058;DHT22;66768;48.884;2.258;2023-05-25T11:20:28;18.80;81.60
41058;DHT22;66768;48.884;2.258;2023-05-25T11:22:58;18.80;80.60
41058;DHT22;66768;48.884;2.258;2023-05-25T11:25:47;18.80;80.70
41058;DHT22;66768;48.884;2.258;2023-05-25T11:28:14;18.80;82.90
41058;DHT22;66768;48.884;2.258;2023-05-25T11:30:41;18.90;82.60
41058;DHT22;66768;48.884;2.258;2023-05-25T11:33:08;19.00;82.80
41058;DHT22;66768;48.884;2.258;2023-05-25T11:35:35;19.00;83.60
41058;DHT22;66768;48.884;2.258;2023-05-25T11:38:06;19.00;83.30
41058;DHT22;66768;48.884;2.258;2023-05-25T11:40:34;19.00;84.00
41058;DHT22;66768;48.884;2.258;2023-05-25T11:43:03;19.00;84.20
41058;DHT22;66768;48.884;2.258;2023-05-25T11:45:31;19.00;84.00
41058;DHT22;66768;48.884;2.258;2023-05-25T11:47:59;19.00;84.00
41058;DHT22;66768;48.884;2.258;2023-05-25T11:50:27;19.10;83.60
41058;DHT22;66768;48.884;2.258;2023-05-25T11:52:54;19.10;83.40
41058;DHT22;66768;48.884;2.258;2023-05-25T11:55:21;19.10;83.70
41058;DHT22;66768;48.884;2.258;2023-05-25T11:57:54;19.10;83.90
41058;DHT22;66768;48.884;2.258;2023-05-25T12:00:26;19.10;84.00
41058;DHT22;66768;48.884;2.258;2023-05-25T12:02:53;19.30;83.50
41058;DHT22;66768;48.884;2.258;2023-05-25T12:05:20;19.20;82.70
41058;DHT22;66768;48.884;2.258;2023-05-25T12:07:47;19.20;83.90
41058;DHT22;66768;48.884;2.258;2023-05-25T12:10:15;19.30;84.50
41058;DHT22;66768;48.884;2.258;2023-05-25T12:12:43;19.30;84.20
41058;DHT22;66768;48.884;2.258;2023-05-25T12:15:12;19.40;83.30
41058;DHT22;66768;48.884;2.258;2023-05-25T12:17:42;19.40;82.60
41058;DHT22;66768;48.884;2.258;2023-05-25T12:20:10;19.40;81.80
41058;DHT22;66768;48.884;2.258;2023-05-25T12:22:38;19.40;81.70
41058;DHT22;66768;48.884;2.258;2023-05-25T12:25:06;19.50;80.80
41058;DHT22;66768;48.884;2.258;2023-05-25T12:27:35;19.50;80.80
41058;DHT22;66768;48.884;2.258;2023-05-25T12:30:03;19.50;81.50
41058;DHT22;66768;48.884;2.258;2023-05-25T12:32:31;19.50;81.00
41058;DHT22;66768;48.884;2.258;2023-05-25T12:35:03;19.50;80.80
41058;DHT22;66768;48.884;2.258;2023-05-25T12:37:30;19.50;81.00
41058;DHT22;66768;48.884;2.258;2023-05-25T12:39:58;19.50;81.00
41058;DHT22;66768;48.884;2.258;2023-05-25T12:42:25;19.50;81.30
41058;DHT22;66768;48.884;2.258;2023-05-25T12:44:54;19.50;80.80
41058;DHT22;66768;48.884;2.258;2023-05-25T12:47:23;19.50;80.50
41058;DHT22;66768;48.884;2.258;2023-05-25T12:50:08;19.60;80.30
41058;DHT22;66768;48.884;2.258;2023-05-25T12:52:38;19.60;80.70
41058;DHT22;66768;48.884;2.258;2023-05-25T12:55:22;19.60;81.20
41058;DHT22;66768;48.884;2.258;2023-05-25T12:57:51;19.60;80.80
41058;DHT22;66768;48.884;2.258;2023-05-25T13:00:23;19.60;80.80
41058;DHT22;66768;48.884;2.258;2023-05-25T13:02:50;19.60;80.80
41058;DHT22;66768;48.884;2.258;2023-05-25T13:05:19;19.70;81.10
41058;DHT22;66768;48.884;2.258;2023-05-25T13:07:47;19.70;80.40
41058;DHT22;66768;48.884;2.258;2023-05-25T13:10:15;19.70;80.80
41058;DHT22;66768;48.884;2.258;2023-05-25T13:12:42;19.80;81.10
41058;DHT22;66768;48.884;2.258;2023-05-25T13:15:10;19.80;80.10
41058;DHT22;66768;48.884;2.258;2023-05-25T13:17:40;19.90;80.40
41058;DHT22;66768;48.884;2.258;2023-05-25T13:20:07;19.80;80.70
41058;DHT22;66768;48.884;2.258;2023-05-25T13:22:34;19.80;81.20
41058;DHT22;66768;48.884;2.258;2023-05-25T13:25:03;19.90;81.30
41058;DHT22;66768;48.884;2.258;2023-05-25T13:27:30;19.90;81.30
41058;DHT22;66768;48.884;2.258;2023-05-25T13:29:57;19.90;81.60
41058;DHT22;66768;48.884;2.258;2023-05-25T13:32:23;20.00;82.30
41058;DHT22;66768;48.884;2.258;2023-05-25T13:34:50;19.90;82.10
41058;DHT22;66768;48.884;2.258;2023-05-25T13:37:24;19.90;83.40
41058;DHT22;66768;48.884;2.258;2023-05-25T13:39:51;20.00;83.10
41058;DHT22;66768;48.884;2.258;2023-05-25T13:42:19;20.00;84.30
41058;DHT22;66768;48.884;2.258;2023-05-25T13:44:46;20.00;85.10
41058;DHT22;66768;48.884;2.258;2023-05-25T13:47:13;20.10;85.60
41058;DHT22;66768;48.884;2.258;2023-05-25T13:49:40;20.10;85.80
41058;DHT22;66768;48.884;2.258;2023-05-25T13:52:07;20.20;85.50
41058;DHT22;66768;48.884;2.258;2023-05-25T13:54:34;20.10;85.10
41058;DHT22;66768;48.884;2.258;2023-05-25T13:57:01;20.10;85.20
41058;DHT22;66768;48.884;2.258;2023-05-25T13:59:30;20.10;84.70
41058;DHT22;66768;48.884;2.258;2023-05-25T14:01:56;20.10;85.20
41058;DHT22;66768;48.884;2.258;2023-05-25T14:04:23;20.10;84.70
41058;DHT22;66768;48.884;2.258;2023-05-25T14:06:50;20.10;84.30
41058;DHT22;66768;48.884;2.258;2023-05-25T14:09:17;20.10;85.10
41058;DHT22;66768;48.884;2.258;2023-05-25T14:11:44;20.20;85.00
41058;DHT22;66768;48.884;2.258;2023-05-25T14:14:11;20.10;85.00
41058;DHT22;66768;48.884;2.258;2023-05-25T14:16:39;20.20;85.10
41058;DHT22;66768;48.884;2.258;2023-05-25T14:19:06;20.30;85.00
41058;DHT22;66768;48.884;2.258;2023-05-25T14:21:33;20.30;84.00
41058;DHT22;66768;48.884;2.258;2023-05-25T14:24:00;20.20;84.20
41058;DHT22;66768;48.884;2.258;2023-05-25T14:26:27;20.20;84.00
41058;DHT22;66768;48.884;2.258;2023-05-25T14:28:53;20.30;83.80
41058;DHT22;66768;48.884;2.258;2023-05-25T14:31:20;20.40;84.30
41058;DHT22;66768;48.884;2.258;2023-05-25T14:33:49;20.40;84.20
41058;DHT22;66768;48.884;2.258;2023-05-25T14:36:15;20.30;84.60
41058;DHT22;66768;48.884;2.258;2023-05-25T14:38:42;20.30;85.00
41058;DHT22;66768;48.884;2.258;2023-05-25T14:41:09;20.30;85.40
41058;DHT22;66768;48.884;2.258;2023-05-25T14:43:36;20.40;85.40
41058;DHT22;66768;48.884;2.258;2023-05-25T14:46:04;20.50;84.40
41058;DHT22;66768;48.884;2.258;2023-05-25T14:48:31;20.50;83.90
41058;DHT22;66768;48.884;2.258;2023-05-25T14:50:59;20.50;83.70
41058;DHT22;66768;48.884;2.258;2023-05-25T14:53:28;20.50;83.90
41058;DHT22;66768;48.884;2.258;2023-05-25T14:55:55;20.60;84.00
41058;DHT22;66768;48.884;2.258;2023-05-25T14:58:22;20.60;83.80
41058;DHT22;66768;48.884;2.258;2023-05-25T15:00:49;20.50;83.60
41058;DHT22;66768;48.884;2.258;2023-05-25T15:03:16;20.50;84.00
41058;DHT22;66768;48.884;2.258;2023-05-25T15:05:43;20.60;84.60
41058;DHT22;66768;48.884;2.258;2023-05-25T15:08:11;20.50;85.10
41058;DHT22;66768;48.884;2.258;2023-05-25T15:10:38;20.50;84.80
41058;DHT22;66768;48.884;2.258;2023-05-25T15:13:05;20.50;84.50
41058;DHT22;66768;48.884;2.258;2023-05-25T15:15:32;20.60;84.50
41058;DHT22;66768;48.884;2.258;2023-05-25T15:17:58;20.60;84.30
41058;DHT22;66768;48.884;2.258;2023-05-25T15:20:25;20.70;84.00
41058;DHT22;66768;48.884;2.258;2023-05-25T15:22:52;20.70;84.10
41058;DHT22;66768;48.884;2.258;2023-05-25T15:25:20;20.70;84.40
41058;DHT22;66768;48.884;2.258;2023-05-25T15:27:47;20.80;84.60
41058;DHT22;66768;48.884;2.258;2023-05-25T15:30:14;20.80;84.80
41058;DHT22;66768;48.884;2.258;2023-05-25T15:32:42;20.70;84.40
41058;DHT22;66768;48.884;2.258;2023-05-25T15:35:09;20.70;84.00
41058;DHT22;66768;48.884;2.258;2023-05-25T15:37:36;20.70;83.80